sensor_id;sensor_type;location;lat;lon;timestamp;pressure;altitude;pressure_sealevel;temperature;humidity
55038;BME280;40937;53.594;10.034;2022-09-27T00:01:24;76657.31;;;-147.20;78.01
55038;BME280;40937;53.594;10.034;2022-09-27T00:03:52;76659.34;;;-147.20;78.40
55038;BME280;40937;53.594;10.034;2022-09-27T00:06:23;76661.38;;;-147.20;78.52
55038;BME280;40937;53.594;10.034;2022-09-27T00:08:51;76657.31;;;-147.20;78.22
55038;BME280;40937;53.594;10.034;2022-09-27T00:11:23;76659.34;;;-147.20;78.12
55038;BME280;40937;53.594;10.034;2022-09-27T00:13:51;76655.31;;;-147.20;78.06
55038;BME280;40937;53.594;10.034;2022-09-27T00:16:19;76653.28;;;-147.20;78.01
55038;BME280;40937;53.594;10.034;2022-09-27T00:18:45;76655.31;;;-147.20;78.09
55038;BME280;40937;53.594;10.034;2022-09-27T00:21:12;76655.31;;;-147.20;78.18
55038;BME280;40937;53.594;10.034;2022-09-27T00:23:40;76653.28;;;-147.20;78.39
55038;BME280;40937;53.594;10.034;2022-09-27T00:26:07;76655.31;;;-147.20;78.67
55038;BME280;40937;53.594;10.034;2022-09-27T00:28:36;76651.28;;;-147.20;78.42
55038;BME280;40937;53.594;10.034;2022-09-27T00:31:03;76639.16;;;-147.20;78.33
55038;BME280;40937;53.594;10.034;2022-09-27T00:33:31;76639.16;;;-147.20;78.47
55038;BME280;40937;53.594;10.034;2022-09-27T00:36:03;76643.19;;;-147.20;78.40
55038;BME280;40937;53.594;10.034;2022-09-27T00:38:30;76637.16;;;-147.20;78.25
55038;BME280;40937;53.594;10.034;2022-09-27T00:40:57;76643.19;;;-147.20;78.52
55038;BME280;40937;53.594;10.034;2022-09-27T00:43:24;76639.16;;;-147.20;78.57
55038;BME280;40937;53.594;10.034;2022-09-27T00:45:51;76643.19;;;-147.20;78.54
55038;BME280;40937;53.594;10.034;2022-09-27T00:48:23;76645.22;;;-147.20;78.64
55038;BME280;40937;53.594;10.034;2022-09-27T00:50:55;76639.16;;;-147.20;78.60
55038;BME280;40937;53.594;10.034;2022-09-27T00:53:29;76643.19;;;-147.20;78.94
55038;BME280;40937;53.594;10.034;2022-09-27T00:55:59;76639.16;;;-147.20;78.47
55038;BME280;40937;53.594;10.034;2022-09-27T00:58:29;76631.09;;;-147.20;78.67
55038;BME280;40937;53.594;10.034;2022-09-27T01:01:00;76639.16;;;-147.20;79.40
55038;BME280;40937;53.594;10.034;2022-09-27T01:03:34;76637.16;;;-147.20;78.91
55038;BME280;40937;53.594;10.034;2022-09-27T01:06:05;76639.16;;;-147.20;79.02
55038;BME280;40937;53.594;10.034;2022-09-27T01:08:33;76633.09;;;-147.20;79.12
55038;BME280;40937;53.594;10.034;2022-09-27T01:11:11;76631.09;;;-147.20;79.36
55038;BME280;40937;53.594;10.034;2022-09-27T01:13:43;76637.16;;;-147.20;79.15
55038;BME280;40937;53.594;10.034;2022-09-27T01:16:19;76627.06;;;-147.20;78.86
55038;BME280;40937;53.594;10.034;2022-09-27T01:18:56;76627.06;;;-147.20;79.15
55038;BME280;40937;53.594;10.034;2022-09-27T01:21:40;76625.03;;;-147.20;79.32
55038;BME280;40937;53.594;10.034;2022-09-27T01:24:26;76621.00;;;-147.20;79.19
55038;BME280;40937;53.594;10.034;2022-09-27T01:30:20;76627.06;;;-147.20;79.27
55038;BME280;40937;53.594;10.034;2022-09-27T01:33:10;76623.00;;;-147.20;79.20
55038;BME280;40937;53.594;10.034;2022-09-27T01:35:51;76618.97;;;-147.20;79.26
55038;BME280;40937;53.594;10.034;2022-09-27T01:38:24;76618.97;;;-147.20;79.64
55038;BME280;40937;53.594;10.034;2022-09-27T01:41:02;76614.94;;;-147.20;79.66
55038;BME280;40937;53.594;10.034;2022-09-27T01:43:43;76616.97;;;-147.20;79.91
55038;BME280;40937;53.594;10.034;2022-09-27T01:46:17;76616.97;;;-147.20;79.96
55038;BME280;40937;53.594;10.034;2022-09-27T01:49:17;76612.94;;;-147.20;79.85
55038;BME280;40937;53.594;10.034;2022-09-27T01:51:49;76612.94;;;-147.20;79.96
55038;BME280;40937;53.594;10.034;2022-09-27T01:54:22;76612.94;;;-147.20;80.09
55038;BME280;40937;53.594;10.034;2022-09-27T01:57:12;76616.97;;;-147.20;80.16
55038;BME280;40937;53.594;10.034;2022-09-27T01:59:46;76612.94;;;-147.20;80.19
55038;BME280;40937;53.594;10.034;2022-09-27T02:02:38;76604.84;;;-147.20;80.31
55038;BME280;40937;53.594;10.034;2022-09-27T02:05:37;76606.88;;;-147.20;80.32
55038;BME280;40937;53.594;10.034;2022-09-27T02:08:24;76608.88;;;-147.20;80.34
55038;BME280;40937;53.594;10.034;2022-09-27T02:10:57;76606.88;;;-147.20;80.27
55038;BME280;40937;53.594;10.034;2022-09-27T02:13:34;76606.88;;;-147.20;80.52
55038;BME280;40937;53.594;10.034;2022-09-27T02:16:28;76602.84;;;-147.20;80.73
55038;BME280;40937;53.594;10.034;2022-09-27T02:19:21;76602.84;;;-147.20;80.36
55038;BME280;40937;53.594;10.034;2022-09-27T02:21:56;76600.81;;;-147.20;80.54
55038;BME280;40937;53.594;10.034;2022-09-27T02:24:32;76602.84;;;-147.20;80.76
55038;BME280;40937;53.594;10.034;2022-09-27T02:27:08;76598.78;;;-147.20;80.69
55038;BME280;40937;53.594;10.034;2022-09-27T02:29:42;76600.81;;;-147.20;80.48
55038;BME280;40937;53.594;10.034;2022-09-27T02:32:10;76594.75;;;-147.20;80.44
55038;BME280;40937;53.594;10.034;2022-09-27T02:34:41;76604.84;;;-147.20;80.71
55038;BME280;40937;53.594;10.034;2022-09-27T02:37:10;76598.78;;;-147.20;80.51
55038;BME280;40937;53.594;10.034;2022-09-27T02:39:37;76594.75;;;-147.20;80.30
55038;BME280;40937;53.594;10.034;2022-09-27T02:42:06;76588.69;;;-147.20;80.17
55038;BME280;40937;53.594;10.034;2022-09-27T02:44:34;76586.69;;;-147.20;80.10
55038;BME280;40937;53.594;10.034;2022-09-27T02:47:24;76578.63;;;-147.20;79.73
55038;BME280;40937;53.594;10.034;2022-09-27T02:50:10;76582.66;;;-147.20;80.04
55038;BME280;40937;53.594;10.034;2022-09-27T02:52:49;76582.66;;;-147.20;80.13
55038;BME280;40937;53.594;10.034;2022-09-27T02:55:23;76584.66;;;-147.20;80.24
55038;BME280;40937;53.594;10.034;2022-09-27T02:58:05;76582.66;;;-147.20;80.04
55038;BME280;40937;53.594;10.034;2022-09-27T03:01:01;76588.69;;;-147.20;80.32
55038;BME280;40937;53.594;10.034;2022-09-27T03:03:57;76586.69;;;-147.20;80.38
55038;BME280;40937;53.594;10.034;2022-09-27T03:06:27;76584.66;;;-147.20;80.51
55038;BME280;40937;53.594;10.034;2022-09-27T03:08:55;76584.66;;;-147.20;80.84
55038;BME280;40937;53.594;10.034;2022-09-27T03:11:22;76582.66;;;-147.20;80.97
55038;BME280;40937;53.594;10.034;2022-09-27T03:13:49;76580.63;;;-147.20;80.67
55038;BME280;40937;53.594;10.034;2022-09-27T03:16:16;76572.56;;;-147.20;80.22
55038;BME280;40937;53.594;10.034;2022-09-27T03:18:53;76578.63;;;-147.20;80.20
55038;BME280;40937;53.594;10.034;2022-09-27T03:21:41;76574.56;;;-147.20;80.42
55038;BME280;40937;53.594;10.034;2022-09-27T03:24:08;76574.56;;;-147.20;80.77
55038;BME280;40937;53.594;10.034;2022-09-27T03:26:35;76574.56;;;-147.20;80.81
55038;BME280;40937;53.594;10.034;2022-09-27T03:29:01;76572.56;;;-147.20;80.30
55038;BME280;40937;53.594;10.034;2022-09-27T03:31:28;76560.44;;;-147.20;79.93
55038;BME280;40937;53.594;10.034;2022-09-27T03:34:27;76558.44;;;-147.20;79.81
55038;BME280;40937;53.594;10.034;2022-09-27T03:36:56;76560.44;;;-147.20;79.88
55038;BME280;40937;53.594;10.034;2022-09-27T03:39:23;76556.41;;;-147.20;80.00
55038;BME280;40937;53.594;10.034;2022-09-27T03:52:08;76562.47;;;-147.20;80.89
55038;BME280;40937;53.594;10.034;2022-09-27T04:36:54;76552.38;;;-147.20;81.51
55038;BME280;40937;53.594;10.034;2022-09-27T04:39:33;76542.28;;;-147.20;81.64
55038;BME280;40937;53.594;10.034;2022-09-27T04:42:02;76544.28;;;-147.20;81.79
55038;BME280;40937;53.594;10.034;2022-09-27T04:44:28;76546.31;;;-147.20;81.98
55038;BME280;40937;53.594;10.034;2022-09-27T04:46:55;76542.28;;;-147.20;81.99
55038;BME280;40937;53.594;10.034;2022-09-27T04:49:22;76540.25;;;-147.20;81.64
55038;BME280;40937;53.594;10.034;2022-09-27T04:51:48;76538.25;;;-147.20;81.49
55038;BME280;40937;53.594;10.034;2022-09-27T04:54:17;76530.16;;;-147.20;81.17
55038;BME280;40937;53.594;10.034;2022-09-27T04:56:53;76532.19;;;-147.20;81.54
55038;BME280;40937;53.594;10.034;2022-09-27T04:59:19;76532.19;;;-147.20;81.20
55038;BME280;40937;53.594;10.034;2022-09-27T05:01:46;76526.13;;;-147.20;81.14
55038;BME280;40937;53.594;10.034;2022-09-27T05:04:33;76540.25;;;-147.20;81.54
55038;BME280;40937;53.594;10.034;2022-09-27T05:07:00;76536.22;;;-147.20;81.53
55038;BME280;40937;53.594;10.034;2022-09-27T05:09:35;76538.25;;;-147.20;81.44
55038;BME280;40937;53.594;10.034;2022-09-27T05:12:04;76542.28;;;-147.20;82.03
55038;BME280;40937;53.594;10.034;2022-09-27T05:14:45;76534.22;;;-147.20;81.66
55038;BME280;40937;53.594;10.034;2022-09-27T05:17:14;76544.28;;;-147.20;81.74
55038;BME280;40937;53.594;10.034;2022-09-27T05:20:01;76538.25;;;-147.20;82.13
55038;BME280;40937;53.594;10.034;2022-09-27T05:22:42;76538.25;;;-147.20;82.26
55038;BME280;40937;53.594;10.034;2022-09-27T05:25:10;76534.22;;;-147.20;81.95
55038;BME280;40937;53.594;10.034;2022-09-27T05:27:38;76538.25;;;-147.20;81.71
55038;BME280;40937;53.594;10.034;2022-09-27T05:30:06;76530.16;;;-147.20;81.73
55038;BME280;40937;53.594;10.034;2022-09-27T05:32:42;76532.19;;;-147.20;81.73
55038;BME280;40937;53.594;10.034;2022-09-27T05:35:25;76536.22;;;-147.20;81.49
55038;BME280;40937;53.594;10.034;2022-09-27T05:37:53;76522.09;;;-147.20;80.99
55038;BME280;40937;53.594;10.034;2022-09-27T05:40:22;76532.19;;;-147.20;81.22
55038;BME280;40937;53.594;10.034;2022-09-27T05:42:50;76528.16;;;-147.20;81.14
55038;BME280;40937;53.594;10.034;2022-09-27T05:45:18;76532.19;;;-147.20;81.26
55038;BME280;40937;53.594;10.034;2022-09-27T05:47:51;76538.25;;;-147.20;81.49
55038;BME280;40937;53.594;10.034;2022-09-27T05:50:18;76534.22;;;-147.20;80.97
55038;BME280;40937;53.594;10.034;2022-09-27T05:52:45;76532.19;;;-147.20;80.88
55038;BME280;40937;53.594;10.034;2022-09-27T05:55:14;76538.25;;;-147.20;81.16
55038;BME280;40937;53.594;10.034;2022-09-27T05:57:42;76534.22;;;-147.20;81.19
55038;BME280;40937;53.594;10.034;2022-09-27T06:00:19;76530.16;;;-147.20;81.11
55038;BME280;40937;53.594;10.034;2022-09-27T06:02:52;76538.25;;;-147.20;81.16
55038;BME280;40937;53.594;10.034;2022-09-27T06:05:39;76538.25;;;-147.20;81.44
55038;BME280;40937;53.594;10.034;2022-09-27T06:08:32;76542.28;;;-147.20;81.54
55038;BME280;40937;53.594;10.034;2022-09-27T06:11:00;76544.28;;;-147.20;81.78
55038;BME280;40937;53.594;10.034;2022-09-27T06:13:31;76538.25;;;-147.20;81.64
55038;BME280;40937;53.594;10.034;2022-09-27T06:15:58;76534.22;;;-147.20;81.46
55038;BME280;40937;53.594;10.034;2022-09-27T06:18:25;76540.25;;;-147.20;81.58
55038;BME280;40937;53.594;10.034;2022-09-27T06:20:53;76536.22;;;-147.20;81.47
55038;BME280;40937;53.594;10.034;2022-09-27T06:23:21;76532.19;;;-147.20;81.63
55038;BME280;40937;53.594;10.034;2022-09-27T06:25:50;76526.13;;;-147.20;81.45
55038;BME280;40937;53.594;10.034;2022-09-27T06:28:24;76524.13;;;-147.20;81.38
55038;BME280;40937;53.594;10.034;2022-09-27T06:30:56;76528.16;;;-147.20;81.18
55038;BME280;40937;53.594;10.034;2022-09-27T06:33:37;76528.16;;;-147.20;80.88
55038;BME280;40937;53.594;10.034;2022-09-27T06:36:05;76524.13;;;-147.20;81.09
55038;BME280;40937;53.594;10.034;2022-09-27T06:38:34;76524.13;;;-147.20;81.00
55038;BME280;40937;53.594;10.034;2022-09-27T06:41:10;76526.13;;;-147.20;80.77
55038;BME280;40937;53.594;10.034;2022-09-27T06:43:50;76518.06;;;-147.20;80.75
55038;BME280;40937;53.594;10.034;2022-09-27T06:46:38;76518.06;;;-147.20;80.66
55038;BME280;40937;53.594;10.034;2022-09-27T06:49:09;76532.19;;;-147.20;80.44
55038;BME280;40937;53.594;10.034;2022-09-27T06:51:38;76526.13;;;-147.20;80.33
55038;BME280;40937;53.594;10.034;2022-09-27T06:54:05;76526.13;;;-147.20;80.42
55038;BME280;40937;53.594;10.034;2022-09-27T06:56:31;76536.22;;;-147.20;80.56
55038;BME280;40937;53.594;10.034;2022-09-27T06:58:59;76542.28;;;-147.20;80.52
55038;BME280;40937;53.594;10.034;2022-09-27T07:01:44;76540.25;;;-147.20;80.08
55038;BME280;40937;53.594;10.034;2022-09-27T07:04:30;76542.28;;;-147.20;80.36
55038;BME280;40937;53.594;10.034;2022-09-27T07:07:15;76540.25;;;-147.20;80.25
55038;BME280;40937;53.594;10.034;2022-09-27T07:09:46;76542.28;;;-147.20;79.76
55038;BME280;40937;53.594;10.034;2022-09-27T07:12:13;76540.25;;;-147.20;80.11
55038;BME280;40937;53.594;10.034;2022-09-27T07:14:41;76556.41;;;-147.20;80.37
55038;BME280;40937;53.594;10.034;2022-09-27T07:17:13;76558.44;;;-147.20;80.51
55038;BME280;40937;53.594;10.034;2022-09-27T07:19:42;76556.41;;;-147.20;80.39
55038;BME280;40937;53.594;10.034;2022-09-27T07:22:10;76556.41;;;-147.20;80.02
55038;BME280;40937;53.594;10.034;2022-09-27T07:24:39;76558.44;;;-147.20;79.80
55038;BME280;40937;53.594;10.034;2022-09-27T07:27:06;76568.53;;;-147.20;79.81
55038;BME280;40937;53.594;10.034;2022-09-27T07:29:33;76572.56;;;-147.20;79.40
55038;BME280;40937;53.594;10.034;2022-09-27T07:32:00;76570.53;;;-147.20;79.05
55038;BME280;40937;53.594;10.034;2022-09-27T07:34:28;76574.56;;;-147.20;79.28
55038;BME280;40937;53.594;10.034;2022-09-27T07:36:57;76578.63;;;-147.20;78.98
55038;BME280;40937;53.594;10.034;2022-09-27T07:39:25;76584.66;;;-147.20;78.55
55038;BME280;40937;53.594;10.034;2022-09-27T07:41:52;76588.69;;;-147.20;77.98
55038;BME280;40937;53.594;10.034;2022-09-27T07:44:18;76586.69;;;-147.20;78.25
55038;BME280;40937;53.594;10.034;2022-09-27T07:47:05;76588.69;;;-147.20;78.35
55038;BME280;40937;53.594;10.034;2022-09-27T07:50:00;76584.66;;;-147.20;78.21
55038;BME280;40937;53.594;10.034;2022-09-27T07:52:50;76582.66;;;-147.20;77.81
55038;BME280;40937;53.594;10.034;2022-09-27T07:55:49;76592.75;;;-147.20;77.68
55038;BME280;40937;53.594;10.034;2022-09-27T07:58:19;76594.75;;;-147.20;78.45
55038;BME280;40937;53.594;10.034;2022-09-27T08:00:49;76590.72;;;-147.20;78.37
55038;BME280;40937;53.594;10.034;2022-09-27T08:03:16;76582.66;;;-147.20;78.39
55038;BME280;40937;53.594;10.034;2022-09-27T08:05:47;76582.66;;;-147.20;78.52
55038;BME280;40937;53.594;10.034;2022-09-27T08:08:14;76586.69;;;-147.20;79.11
55038;BME280;40937;53.594;10.034;2022-09-27T08:10:43;76580.63;;;-147.20;79.15
55038;BME280;40937;53.594;10.034;2022-09-27T08:13:13;76574.56;;;-147.20;79.35
55038;BME280;40937;53.594;10.034;2022-09-27T08:15:42;76578.63;;;-147.20;79.19
55038;BME280;40937;53.594;10.034;2022-09-27T08:18:09;76578.63;;;-147.20;79.23
55038;BME280;40937;53.594;10.034;2022-09-27T08:20:59;76566.50;;;-147.20;79.23
55038;BME280;40937;53.594;10.034;2022-09-27T08:23:49;76568.53;;;-147.20;78.91
55038;BME280;40937;53.594;10.034;2022-09-27T08:26:21;76568.53;;;-147.20;78.88
55038;BME280;40937;53.594;10.034;2022-09-27T08:29:10;76570.53;;;-147.20;78.23
55038;BME280;40937;53.594;10.034;2022-09-27T08:31:41;76578.63;;;-147.20;77.67
55038;BME280;40937;53.594;10.034;2022-09-27T08:34:08;76574.56;;;-147.20;77.83
55038;BME280;40937;53.594;10.034;2022-09-27T08:36:37;76574.56;;;-147.20;77.72
55038;BME280;40937;53.594;10.034;2022-09-27T08:39:03;76578.63;;;-147.20;78.03
55038;BME280;40937;53.594;10.034;2022-09-27T08:41:44;76586.69;;;-147.20;77.71
55038;BME280;40937;53.594;10.034;2022-09-27T08:44:19;76578.63;;;-147.20;77.82
55038;BME280;40937;53.594;10.034;2022-09-27T08:47:03;76586.69;;;-147.20;77.66
55038;BME280;40937;53.594;10.034;2022-09-27T08:49:35;76600.81;;;-147.20;78.24
55038;BME280;40937;53.594;10.034;2022-09-27T08:52:07;76600.81;;;-147.20;78.15
55038;BME280;40937;53.594;10.034;2022-09-27T08:54:38;76604.84;;;-147.20;78.21
55038;BME280;40937;53.594;10.034;2022-09-27T08:57:09;76592.75;;;-147.20;78.16
55038;BME280;40937;53.594;10.034;2022-09-27T08:59:40;76602.84;;;-147.20;77.94
55038;BME280;40937;53.594;10.034;2022-09-27T09:02:13;76588.69;;;-147.20;77.65
55038;BME280;40937;53.594;10.034;2022-09-27T09:04:46;76598.78;;;-147.20;77.80
55038;BME280;40937;53.594;10.034;2022-09-27T09:07:25;76598.78;;;-147.20;78.22
55038;BME280;40937;53.594;10.034;2022-09-27T09:10:02;76594.75;;;-147.20;78.34
55038;BME280;40937;53.594;10.034;2022-09-27T09:12:48;76592.75;;;-147.20;78.37
55038;BME280;40937;53.594;10.034;2022-09-27T09:15:30;76592.75;;;-147.20;78.23
55038;BME280;40937;53.594;10.034;2022-09-27T09:18:31;76590.72;;;-147.20;77.64
55038;BME280;40937;53.594;10.034;2022-09-27T09:21:19;76592.75;;;-147.20;76.66
55038;BME280;40937;53.594;10.034;2022-09-27T09:24:07;76608.88;;;-147.20;76.94
55038;BME280;40937;53.594;10.034;2022-09-27T09:26:41;76618.97;;;-147.20;77.50
55038;BME280;40937;53.594;10.034;2022-09-27T09:29:23;76614.94;;;-147.20;77.70
55038;BME280;40937;53.594;10.034;2022-09-27T09:32:03;76616.97;;;-147.20;77.79
55038;BME280;40937;53.594;10.034;2022-09-27T09:34:35;76618.97;;;-147.20;77.59
55038;BME280;40937;53.594;10.034;2022-09-27T09:37:10;76616.97;;;-147.20;77.42
55038;BME280;40937;53.594;10.034;2022-09-27T09:39:45;76631.09;;;-147.20;77.68
55038;BME280;40937;53.594;10.034;2022-09-27T09:42:18;76627.06;;;-147.20;77.40
55038;BME280;40937;53.594;10.034;2022-09-27T09:44:53;76621.00;;;-147.20;77.24
55038;BME280;40937;53.594;10.034;2022-09-27T09:47:30;76627.06;;;-147.20;77.38
55038;BME280;40937;53.594;10.034;2022-09-27T09:50:02;76629.06;;;-147.20;77.26
55038;BME280;40937;53.594;10.034;2022-09-27T09:52:37;76623.00;;;-147.20;77.16
55038;BME280;40937;53.594;10.034;2022-09-27T09:55:14;76623.00;;;-147.20;77.46
55038;BME280;40937;53.594;10.034;2022-09-27T09:57:51;76618.97;;;-147.20;77.39
55038;BME280;40937;53.594;10.034;2022-09-27T10:00:26;76623.00;;;-147.20;77.40
55038;BME280;40937;53.594;10.034;2022-09-27T10:02:54;76637.16;;;-147.20;77.86
55038;BME280;40937;53.594;10.034;2022-09-27T10:05:25;76631.09;;;-147.20;77.59
55038;BME280;40937;53.594;10.034;2022-09-27T10:08:11;76625.03;;;-147.20;77.04
55038;BME280;40937;53.594;10.034;2022-09-27T10:10:40;76631.09;;;-147.20;77.21
55038;BME280;40937;53.594;10.034;2022-09-27T10:13:26;76629.06;;;-147.20;77.18
55038;BME280;40937;53.594;10.034;2022-09-27T10:16:02;76631.09;;;-147.20;77.13
55038;BME280;40937;53.594;10.034;2022-09-27T10:18:31;76645.22;;;-147.20;77.61
55038;BME280;40937;53.594;10.034;2022-09-27T10:21:01;76639.16;;;-147.20;77.50
55038;BME280;40937;53.594;10.034;2022-09-27T10:23:29;76633.09;;;-147.20;77.53
55038;BME280;40937;53.594;10.034;2022-09-27T10:26:17;76635.13;;;-147.20;77.32
55038;BME280;40937;53.594;10.034;2022-09-27T10:28:48;76633.09;;;-147.20;77.52
55038;BME280;40937;53.594;10.034;2022-09-27T10:31:34;76625.03;;;-147.20;77.29
55038;BME280;40937;53.594;10.034;2022-09-27T10:34:26;76625.03;;;-147.20;77.35
55038;BME280;40937;53.594;10.034;2022-09-27T10:37:15;76627.06;;;-147.20;77.31
55038;BME280;40937;53.594;10.034;2022-09-27T10:40:23;76625.03;;;-147.20;77.64
55038;BME280;40937;53.594;10.034;2022-09-27T10:43:23;76635.13;;;-147.20;77.77
55038;BME280;40937;53.594;10.034;2022-09-27T10:46:27;76637.16;;;-147.20;78.23
55038;BME280;40937;53.594;10.034;2022-09-27T10:49:34;76631.09;;;-147.20;78.01
55038;BME280;40937;53.594;10.034;2022-09-27T12:31:14;76598.78;;;-147.20;73.48
55038;BME280;40937;53.594;10.034;2022-09-27T12:33:48;76592.75;;;-147.20;73.30
55038;BME280;40937;53.594;10.034;2022-09-27T12:36:20;76594.75;;;-147.20;73.19
55038;BME280;40937;53.594;10.034;2022-09-27T12:38:52;76594.75;;;-147.20;73.54
55038;BME280;40937;53.594;10.034;2022-09-27T12:41:22;76594.75;;;-147.20;73.76
55038;BME280;40937;53.594;10.034;2022-09-27T12:44:06;76578.63;;;-147.20;73.84
55038;BME280;40937;53.594;10.034;2022-09-27T12:46:56;76574.56;;;-147.20;74.06
55038;BME280;40937;53.594;10.034;2022-09-27T12:49:34;76566.50;;;-147.20;73.35
55038;BME280;40937;53.594;10.034;2022-09-27T12:52:10;76558.44;;;-147.20;73.40
55038;BME280;40937;53.594;10.034;2022-09-27T12:54:51;76560.44;;;-147.20;73.88
55038;BME280;40937;53.594;10.034;2022-09-27T12:57:32;76562.47;;;-147.20;73.88
55038;BME280;40937;53.594;10.034;2022-09-27T13:00:09;76564.47;;;-147.20;73.27
55038;BME280;40937;53.594;10.034;2022-09-27T13:02:49;76560.44;;;-147.20;72.36
55038;BME280;40937;53.594;10.034;2022-09-27T13:05:33;76566.50;;;-147.20;71.82
55038;BME280;40937;53.594;10.034;2022-09-27T13:08:19;76556.41;;;-147.20;70.63
55038;BME280;40937;53.594;10.034;2022-09-27T13:10:56;76576.59;;;-147.20;71.10
55038;BME280;40937;53.594;10.034;2022-09-27T13:13:30;76566.50;;;-147.20;71.47
55038;BME280;40937;53.594;10.034;2022-09-27T13:16:00;76572.56;;;-147.20;72.46
55038;BME280;40937;53.594;10.034;2022-09-27T13:18:52;76576.59;;;-147.20;71.85
55038;BME280;40937;53.594;10.034;2022-09-27T13:21:54;76578.63;;;-147.20;72.00
55038;BME280;40937;53.594;10.034;2022-09-27T13:24:48;76578.63;;;-147.20;71.30
55038;BME280;40937;53.594;10.034;2022-09-27T13:27:43;76586.69;;;-147.20;70.80
55038;BME280;40937;53.594;10.034;2022-09-27T13:30:44;76580.63;;;-147.20;70.65
55038;BME280;40937;53.594;10.034;2022-09-27T13:33:40;76592.75;;;-147.20;71.08
55038;BME280;40937;53.594;10.034;2022-09-27T13:36:27;76584.66;;;-147.20;71.71
55038;BME280;40937;53.594;10.034;2022-09-27T13:39:16;76586.69;;;-147.20;72.09
55038;BME280;40937;53.594;10.034;2022-09-27T13:42:10;76596.78;;;-147.20;71.78
55038;BME280;40937;53.594;10.034;2022-09-27T13:44:52;76600.81;;;-147.20;71.75
55038;BME280;40937;53.594;10.034;2022-09-27T13:47:28;76594.75;;;-147.20;71.86
55038;BME280;40937;53.594;10.034;2022-09-27T13:50:16;76598.78;;;-147.20;72.21
55038;BME280;40937;53.594;10.034;2022-09-27T13:53:01;76600.81;;;-147.20;71.02
55038;BME280;40937;53.594;10.034;2022-09-27T13:55:39;76592.75;;;-147.20;70.15
55038;BME280;40937;53.594;10.034;2022-09-27T13:58:29;76584.66;;;-147.20;70.00
55038;BME280;40937;53.594;10.034;2022-09-27T14:00:59;76592.75;;;-147.20;69.67
55038;BME280;40937;53.594;10.034;2022-09-27T14:03:32;76594.75;;;-147.20;69.83
55038;BME280;40937;53.594;10.034;2022-09-27T14:06:24;76580.63;;;-147.20;69.00
55038;BME280;40937;53.594;10.034;2022-09-27T14:08:56;76596.78;;;-147.20;69.29
55038;BME280;40937;53.594;10.034;2022-09-27T14:11:26;76588.69;;;-147.20;69.44
55038;BME280;40937;53.594;10.034;2022-09-27T14:13:55;76596.78;;;-147.20;69.17
55038;BME280;40937;53.594;10.034;2022-09-27T14:16:29;76592.75;;;-147.20;69.93
55038;BME280;40937;53.594;10.034;2022-09-27T14:18:58;76596.78;;;-147.20;69.84
55038;BME280;40937;53.594;10.034;2022-09-27T14:21:38;76596.78;;;-147.20;70.12
55038;BME280;40937;53.594;10.034;2022-09-27T14:24:27;76602.84;;;-147.20;70.63
55038;BME280;40937;53.594;10.034;2022-09-27T14:27:11;76600.81;;;-147.20;70.60
55038;BME280;40937;53.594;10.034;2022-09-27T14:29:41;76596.78;;;-147.20;70.14
55038;BME280;40937;53.594;10.034;2022-09-27T14:32:13;76600.81;;;-147.20;69.88
55038;BME280;40937;53.594;10.034;2022-09-27T14:35:05;76606.88;;;-147.20;69.30
55038;BME280;40937;53.594;10.034;2022-09-27T14:37:53;76612.94;;;-147.20;69.30
55038;BME280;40937;53.594;10.034;2022-09-27T14:40:21;76625.03;;;-147.20;69.06
55038;BME280;40937;53.594;10.034;2022-09-27T14:42:51;76635.13;;;-147.20;69.51
55038;BME280;40937;53.594;10.034;2022-09-27T14:45:21;76633.09;;;-147.20;69.60
55038;BME280;40937;53.594;10.034;2022-09-27T14:47:50;76635.13;;;-147.20;70.11
55038;BME280;40937;53.594;10.034;2022-09-27T14:50:19;76647.25;;;-147.20;69.80
55038;BME280;40937;53.594;10.034;2022-09-27T14:52:46;76647.25;;;-147.20;70.29
55038;BME280;40937;53.594;10.034;2022-09-27T14:55:18;76651.28;;;-147.20;70.28
55038;BME280;40937;53.594;10.034;2022-09-27T14:57:50;76659.34;;;-147.20;69.90
55038;BME280;40937;53.594;10.034;2022-09-27T15:00:19;76663.38;;;-147.20;70.15
55038;BME280;40937;53.594;10.034;2022-09-27T15:02:48;76659.34;;;-147.20;70.47
55038;BME280;40937;53.594;10.034;2022-09-27T15:05:20;76665.41;;;-147.20;71.15
55038;BME280;40937;53.594;10.034;2022-09-27T15:07:47;76661.38;;;-147.20;71.27
55038;BME280;40937;53.594;10.034;2022-09-27T15:10:16;76667.41;;;-147.20;72.05
55038;BME280;40937;53.594;10.034;2022-09-27T15:12:44;76667.41;;;-147.20;72.44
55038;BME280;40937;53.594;10.034;2022-09-27T15:15:18;76663.38;;;-147.20;72.61
55038;BME280;40937;53.594;10.034;2022-09-27T15:17:46;76661.38;;;-147.20;72.06
55038;BME280;40937;53.594;10.034;2022-09-27T15:20:22;76669.44;;;-147.20;71.46
55038;BME280;40937;53.594;10.034;2022-09-27T15:22:50;76669.44;;;-147.20;71.66
55038;BME280;40937;53.594;10.034;2022-09-27T15:25:23;76667.41;;;-147.20;71.41
55038;BME280;40937;53.594;10.034;2022-09-27T15:28:01;76671.47;;;-147.20;71.07
55038;BME280;40937;53.594;10.034;2022-09-27T15:30:34;76675.50;;;-147.20;70.77
55038;BME280;40937;53.594;10.034;2022-09-27T15:33:02;76677.50;;;-147.20;71.03
55038;BME280;40937;53.594;10.034;2022-09-27T15:35:31;76681.56;;;-147.20;70.92
55038;BME280;40937;53.594;10.034;2022-09-27T15:38:22;76679.53;;;-147.20;70.57
55038;BME280;40937;53.594;10.034;2022-09-27T15:41:09;76691.66;;;-147.20;70.38
55038;BME280;40937;53.594;10.034;2022-09-27T15:43:38;76687.59;;;-147.20;69.88
55038;BME280;40937;53.594;10.034;2022-09-27T15:46:34;76695.69;;;-147.20;69.75
55038;BME280;40937;53.594;10.034;2022-09-27T15:49:34;76693.66;;;-147.20;69.73